Time;durP1;ratioP1;P1;durP2;ratioP2;P2;SDS_P1;SDS_P2;PMS_P1;PMS_P2;Temp;Humidity;BMP_temperature;BMP_pressure;BME280_temperature;BME280_humidity;BME280_pressure;Samples;Min_cycle;Max_cycle;Signal;HPM_P1;HPM_P2
2022/03/19 00:01:22;;;;;;;14.67;6.63;;;12.80;53.00;;;;;;5058891;28;20582;-90
2022/03/19 00:03:49;;;;;;;17.03;7.27;;;12.80;53.20;;;;;;5054304;28;20232;-90
2022/03/19 00:06:16;;;;;;;20.37;8.53;;;12.70;53.10;;;;;;5082909;28;20222;-92
2022/03/19 00:08:43;;;;;;;8.63;5.80;;;12.70;53.00;;;;;;5081860;28;20300;-88
2022/03/19 00:11:11;;;;;;;16.60;6.93;;;12.70;53.20;;;;;;5074367;28;20203;-88
2022/03/19 00:13:40;;;;;;;16.03;6.80;;;12.70;53.20;;;;;;5072302;28;20205;-90
2022/03/19 00:16:07;;;;;;;17.03;7.27;;;12.70;53.20;;;;;;5059744;28;20341;-90
2022/03/19 00:18:37;;;;;;;23.10;8.47;;;12.60;53.30;;;;;;5055004;28;20314;-89
2022/03/19 00:21:04;;;;;;;19.83;7.97;;;12.60;53.30;;;;;;5065014;28;20198;-90
2022/03/19 00:23:32;;;;;;;12.67;5.93;;;12.60;53.30;;;;;;5069687;28;20293;-89
2022/03/19 00:25:59;;;;;;;12.77;6.23;;;12.50;53.30;;;;;;5070404;28;20284;-90
2022/03/19 00:28:29;;;;;;;17.47;7.60;;;12.60;53.30;;;;;;5072308;28;20232;-90
2022/03/19 00:30:56;;;;;;;14.50;6.83;;;12.50;53.50;;;;;;5070669;28;20278;-89
2022/03/19 00:33:23;;;;;;;18.50;8.07;;;12.50;53.30;;;;;;5072130;28;20330;-93
2022/03/19 00:35:51;;;;;;;13.50;5.97;;;12.50;53.40;;;;;;5072814;28;20213;-88
2022/03/19 00:38:19;;;;;;;13.07;6.00;;;12.50;53.60;;;;;;5069729;28;20635;-92
2022/03/19 00:40:47;;;;;;;12.60;6.27;;;12.50;53.70;;;;;;5072924;28;20280;-90
2022/03/19 00:43:15;;;;;;;18.67;7.70;;;12.50;53.60;;;;;;5071636;28;20210;-88
2022/03/19 00:45:42;;;;;;;16.07;6.80;;;12.40;53.90;;;;;;5071558;28;20203;-89
2022/03/19 00:48:10;;;;;;;26.10;10.20;;;12.40;53.90;;;;;;5069891;28;20199;-91
2022/03/19 00:50:38;;;;;;;13.43;6.30;;;12.40;53.80;;;;;;5071299;28;20334;-93
2022/03/19 00:53:08;;;;;;;14.03;6.73;;;12.40;53.90;;;;;;5070514;28;20225;-93
2022/03/19 00:55:35;;;;;;;16.50;7.27;;;12.40;54.00;;;;;;5070826;28;20672;-90
2022/03/19 00:58:02;;;;;;;16.83;6.63;;;12.30;53.90;;;;;;5071458;28;20538;-89
2022/03/19 01:00:29;;;;;;;10.70;6.07;;;12.30;53.90;;;;;;5072845;28;20193;-89
2022/03/19 01:02:57;;;;;;;15.60;7.70;;;12.30;54.00;;;;;;5087186;28;20204;-90
2022/03/19 01:05:31;;;;;;;14.00;6.43;;;12.30;54.10;;;;;;5076621;28;20206;-89
2022/03/19 01:07:59;;;;;;;15.73;7.23;;;12.30;54.30;;;;;;5073885;28;20264;-90
2022/03/19 01:10:29;;;;;;;18.53;7.77;;;12.30;54.30;;;;;;5066469;28;20262;-90
2022/03/19 01:12:59;;;;;;;18.83;7.80;;;12.20;54.40;;;;;;5056752;28;20356;-93
2022/03/19 01:15:26;;;;;;;20.00;7.73;;;12.10;54.10;;;;;;5066728;28;20710;-88
2022/03/19 01:17:55;;;;;;;19.07;7.80;;;12.20;54.30;;;;;;5072341;28;20312;-90
2022/03/19 01:20:24;;;;;;;16.20;6.87;;;12.10;54.30;;;;;;5053191;28;20282;-89
2022/03/19 01:22:51;;;;;;;13.13;7.53;;;12.10;54.50;;;;;;5058271;28;20206;-89
2022/03/19 01:25:22;;;;;;;16.27;7.47;;;12.10;54.40;;;;;;5067214;28;20204;-90
2022/03/19 01:27:52;;;;;;;21.37;8.73;;;12.10;54.60;;;;;;5059516;28;20227;-90
2022/03/19 01:30:22;;;;;;;20.73;8.00;;;12.00;54.80;;;;;;5057765;28;20234;-88
2022/03/19 01:32:51;;;;;;;13.90;7.10;;;12.00;55.10;;;;;;5057897;28;20559;-90
2022/03/19 01:35:21;;;;;;;15.57;7.63;;;11.90;55.30;;;;;;5069762;28;20611;-92
2022/03/19 01:37:50;;;;;;;13.23;6.33;;;11.90;55.30;;;;;;5066146;28;20773;-88
2022/03/19 01:40:20;;;;;;;19.67;8.07;;;11.90;55.20;;;;;;5067136;28;20285;-89
2022/03/19 01:42:51;;;;;;;16.63;7.27;;;11.90;55.20;;;;;;5066989;28;20233;-90
2022/03/19 01:45:22;;;;;;;19.37;7.90;;;11.80;55.30;;;;;;5056192;28;20209;-87
2022/03/19 01:47:50;;;;;;;15.63;7.30;;;11.80;55.50;;;;;;5063496;28;20278;-90
2022/03/19 01:50:18;;;;;;;20.73;8.00;;;11.70;56.00;;;;;;5069225;28;20287;-89
2022/03/19 01:52:47;;;;;;;20.80;7.97;;;11.70;55.50;;;;;;5070174;28;20216;-87
2022/03/19 01:55:17;;;;;;;18.77;8.07;;;11.70;55.40;;;;;;5070817;28;20262;-87
2022/03/19 01:57:45;;;;;;;14.17;6.90;;;11.70;55.50;;;;;;5071592;28;20642;-90
2022/03/19 02:00:17;;;;;;;18.00;8.07;;;11.70;55.50;;;;;;5077600;28;20230;-89
2022/03/19 02:02:48;;;;;;;13.80;6.53;;;11.60;55.80;;;;;;5084013;28;20223;-90
2022/03/19 02:05:21;;;;;;;10.10;5.93;;;11.60;55.60;;;;;;5077101;28;20587;-91
2022/03/19 02:07:50;;;;;;;13.37;6.40;;;11.60;55.70;;;;;;5075260;28;20309;-91
2022/03/19 02:10:19;;;;;;;20.20;8.40;;;11.60;55.60;;;;;;5077378;28;20756;-90
2022/03/19 02:12:47;;;;;;;17.90;7.97;;;11.50;55.70;;;;;;5061281;28;20224;-89
2022/03/19 02:15:17;;;;;;;20.40;8.67;;;11.50;55.60;;;;;;5070989;28;20295;-94
2022/03/19 02:17:45;;;;;;;11.97;6.37;;;11.50;55.90;;;;;;5075684;28;20695;-90
2022/03/19 02:20:12;;;;;;;14.67;7.07;;;11.50;55.70;;;;;;5068501;28;20866;-90
2022/03/19 02:22:40;;;;;;;14.80;8.07;;;11.50;56.00;;;;;;5072371;28;20262;-88
2022/03/19 02:27:55;;;;;;;14.27;7.03;;;11.40;56.10;;;;;;5074431;28;20277;-95
2022/03/19 02:30:22;;;;;;;19.03;7.83;;;11.40;56.00;;;;;;5071888;28;20778;-93
2022/03/19 02:32:50;;;;;;;14.97;7.20;;;11.40;56.20;;;;;;5072352;28;20209;-90
2022/03/19 02:35:20;;;;;;;12.43;6.87;;;11.30;56.10;;;;;;5070095;28;20201;-91
2022/03/19 02:37:49;;;;;;;16.73;7.77;;;11.30;56.60;;;;;;5070705;28;20197;-90
2022/03/19 02:40:20;;;;;;;22.37;8.97;;;11.30;56.60;;;;;;5070499;28;20260;-90
2022/03/19 02:42:50;;;;;;;24.37;9.90;;;11.20;56.70;;;;;;5064154;28;20205;-92
2022/03/19 02:45:22;;;;;;;18.00;7.90;;;11.20;56.70;;;;;;5067828;28;20211;-90
2022/03/19 02:47:59;;;;;;;19.63;8.03;;;11.20;56.80;;;;;;5067345;28;20208;-93
2022/03/19 02:50:28;;;;;;;19.30;8.77;;;11.10;56.90;;;;;;5070717;28;20235;-90
2022/03/19 02:52:56;;;;;;;16.57;7.87;;;11.10;57.10;;;;;;5066738;28;20198;-88
2022/03/19 02:55:25;;;;;;;19.10;8.30;;;11.10;57.10;;;;;;5070938;28;20226;-89
2022/03/19 02:57:52;;;;;;;15.13;8.20;;;11.00;57.00;;;;;;5089603;28;20214;-93
2022/03/19 03:00:22;;;;;;;12.00;6.23;;;11.00;57.00;;;;;;5078889;28;20228;-94
2022/03/19 03:02:50;;;;;;;12.43;7.47;;;11.00;57.10;;;;;;5073169;28;20201;-88
2022/03/19 03:05:20;;;;;;;19.87;8.13;;;11.00;57.00;;;;;;5072720;28;20280;-93
2022/03/19 03:07:49;;;;;;;11.27;7.10;;;10.90;57.30;;;;;;5072227;28;20224;-91
2022/03/19 03:10:18;;;;;;;23.97;9.33;;;10.90;57.30;;;;;;5070465;28;20205;-93
2022/03/19 03:12:46;;;;;;;15.20;7.57;;;10.90;57.30;;;;;;5070441;28;20193;-94
2022/03/19 03:15:14;;;;;;;17.97;7.77;;;10.90;57.30;;;;;;5071076;28;20231;-89
2022/03/19 03:17:42;;;;;;;17.13;7.57;;;10.90;57.50;;;;;;5072261;28;20309;-93
2022/03/19 03:20:11;;;;;;;11.73;7.20;;;10.90;57.60;;;;;;5071972;28;20232;-89
2022/03/19 03:22:42;;;;;;;15.90;7.67;;;10.80;58.00;;;;;;5068948;28;20295;-90
2022/03/19 03:25:10;;;;;;;15.67;8.07;;;10.80;57.80;;;;;;5070620;28;20265;-89
2022/03/19 03:27:37;;;;;;;19.60;9.27;;;10.80;58.00;;;;;;5064277;28;20202;-94
2022/03/19 03:30:07;;;;;;;17.97;8.13;;;10.70;57.90;;;;;;5056649;28;20228;-88
2022/03/19 03:32:35;;;;;;;15.67;7.67;;;10.70;58.20;;;;;;5057264;28;20241;-90
2022/03/19 03:35:02;;;;;;;17.73;8.57;;;10.70;58.20;;;;;;5063454;28;20258;-89
2022/03/19 03:37:30;;;;;;;16.57;7.93;;;10.70;58.10;;;;;;5060726;28;20311;-90
2022/03/19 03:39:58;;;;;;;21.97;8.60;;;10.70;58.40;;;;;;5069583;28;20285;-90
2022/03/19 03:42:26;;;;;;;22.17;9.13;;;10.60;58.30;;;;;;5069864;28;20612;-90
2022/03/19 03:44:58;;;;;;;21.50;8.83;;;10.70;58.30;;;;;;5064138;28;20295;-90
2022/03/19 03:47:29;;;;;;;17.33;7.73;;;10.60;58.40;;;;;;5070724;28;20198;-89
2022/03/19 03:49:57;;;;;;;25.27;10.23;;;10.60;58.40;;;;;;5069790;28;20232;-89
2022/03/19 03:52:24;;;;;;;20.87;9.10;;;10.60;58.40;;;;;;5070571;28;20291;-90
2022/03/19 03:54:52;;;;;;;18.70;8.70;;;10.60;58.30;;;;;;5066586;28;20190;-90
2022/03/19 03:57:19;;;;;;;19.20;8.93;;;10.60;58.50;;;;;;5079006;28;20235;-89
2022/03/19 03:59:52;;;;;;;24.60;10.03;;;10.60;58.80;;;;;;5071516;28;20225;-89
2022/03/19 04:02:19;;;;;;;18.23;9.17;;;10.60;58.80;;;;;;5071899;28;20206;-91
2022/03/19 04:04:48;;;;;;;17.80;8.87;;;10.60;58.40;;;;;;5069663;28;20195;-91
2022/03/19 04:07:17;;;;;;;18.63;8.73;;;10.60;58.80;;;;;;5072685;28;20312;-89
2022/03/19 04:09:46;;;;;;;17.80;9.23;;;10.50;58.70;;;;;;5066746;28;20204;-93
2022/03/19 04:12:16;;;;;;;17.00;8.93;;;10.60;58.80;;;;;;5065592;28;20234;-92
2022/03/19 04:14:44;;;;;;;17.00;8.13;;;10.50;58.70;;;;;;5059268;28;20234;-89
2022/03/19 04:17:15;;;;;;;14.70;8.07;;;10.50;58.70;;;;;;5066001;28;20203;-89
2022/03/19 04:19:43;;;;;;;25.63;9.83;;;10.50;59.00;;;;;;5064748;28;20204;-90
2022/03/19 04:22:13;;;;;;;19.43;8.70;;;10.50;58.90;;;;;;5066173;28;20235;-90
2022/03/19 04:24:41;;;;;;;19.77;9.23;;;10.50;59.40;;;;;;5059939;28;20223;-89
2022/03/19 04:27:10;;;;;;;15.10;8.37;;;10.40;59.40;;;;;;5058898;28;20300;-91
2022/03/19 04:29:37;;;;;;;20.07;10.07;;;10.40;59.40;;;;;;5068897;28;20236;-94
2022/03/19 04:32:06;;;;;;;16.83;9.00;;;10.40;59.40;;;;;;5054859;28;20209;-90
2022/03/19 04:34:33;;;;;;;17.20;8.90;;;10.30;59.40;;;;;;5070787;28;20565;-90
2022/03/19 04:37:00;;;;;;;27.90;11.03;;;10.30;59.40;;;;;;5053986;28;20705;-89
2022/03/19 04:39:29;;;;;;;17.03;8.77;;;10.30;59.80;;;;;;5061300;28;20603;-90
2022/03/19 04:41:56;;;;;;;16.10;8.57;;;10.30;59.60;;;;;;5071020;28;20302;-90
2022/03/19 04:44:23;;;;;;;15.40;8.23;;;10.30;59.70;;;;;;5055676;28;20193;-90
2022/03/19 04:46:50;;;;;;;17.10;9.07;;;10.20;60.00;;;;;;5069439;28;20260;-88
2022/03/19 04:49:17;;;;;;;21.27;10.57;;;10.20;60.00;;;;;;5059703;28;20273;-89
2022/03/19 04:51:45;;;;;;;23.13;10.70;;;10.20;59.90;;;;;;5081680;28;20207;-91
2022/03/19 04:54:12;;;;;;;17.00;9.20;;;10.20;59.90;;;;;;5071014;28;20209;-92
2022/03/19 04:56:43;;;;;;;34.73;13.43;;;10.10;59.80;;;;;;5074364;28;20247;-91
2022/03/19 04:59:11;;;;;;;19.53;10.20;;;10.10;60.70;;;;;;5073191;28;20216;-92
2022/03/19 05:01:39;;;;;;;27.30;10.53;;;10.10;60.70;;;;;;5073597;28;20196;-92
2022/03/19 05:04:12;;;;;;;20.70;10.20;;;10.10;60.20;;;;;;5073893;28;20283;-93
2022/03/19 05:06:40;;;;;;;21.03;9.53;;;10.10;61.40;;;;;;5073972;28;20207;-91
2022/03/19 05:11:53;;;;;;;21.23;10.00;;;10.00;60.40;;;;;;5072087;28;20574;-93
2022/03/19 05:14:21;;;;;;;20.60;10.40;;;10.00;60.50;;;;;;5063290;28;20663;-92
2022/03/19 05:16:49;;;;;;;22.97;10.70;;;10.00;60.50;;;;;;5060768;28;20904;-87
2022/03/19 05:19:17;;;;;;;21.60;10.37;;;10.00;60.50;;;;;;5066997;28;20723;-91
2022/03/19 05:21:44;;;;;;;19.93;10.40;;;10.00;60.60;;;;;;5066739;28;20233;-91
2022/03/19 05:24:15;;;;;;;22.80;9.97;;;10.00;60.50;;;;;;5056405;28;20299;-87
2022/03/19 05:26:42;;;;;;;22.90;10.00;;;9.90;61.80;;;;;;5061655;28;20234;-93
2022/03/19 05:29:11;;;;;;;21.37;9.50;;;10.00;60.60;;;;;;5065009;28;20291;-89
2022/03/19 05:31:39;;;;;;;17.40;9.37;;;10.00;60.60;;;;;;5068525;28;20266;-92
2022/03/19 05:36:50;;;;;;;14.43;8.40;;;9.90;61.80;;;;;;5062345;28;20214;-92
2022/03/19 05:39:17;;;;;;;24.70;10.67;;;9.90;61.60;;;;;;5059189;28;20219;-94
2022/03/19 05:41:45;;;;;;;14.83;8.37;;;9.90;61.70;;;;;;5072164;28;20258;-90
2022/03/19 05:44:13;;;;;;;17.70;9.23;;;9.90;61.60;;;;;;5072378;28;20206;-90
2022/03/19 05:46:40;;;;;;;21.50;9.60;;;9.90;61.60;;;;;;5069429;28;20216;-89
2022/03/19 05:49:07;;;;;;;23.13;9.97;;;9.90;61.70;;;;;;5078674;28;20222;-88
2022/03/19 05:51:35;;;;;;;18.73;9.57;;;9.90;61.60;;;;;;5072337;28;20223;-89
2022/03/19 05:54:03;;;;;;;13.97;8.97;;;9.90;61.50;;;;;;5070004;28;20205;-93
2022/03/19 05:56:30;;;;;;;23.13;9.93;;;9.90;61.60;;;;;;5071552;28;20530;-92
2022/03/19 05:58:58;;;;;;;24.10;9.80;;;9.90;61.60;;;;;;5070218;28;20243;-89
2022/03/19 06:01:27;;;;;;;17.83;10.13;;;9.90;61.70;;;;;;5064353;28;20229;-88
2022/03/19 06:03:54;;;;;;;16.70;9.07;;;9.90;61.90;;;;;;5053166;28;20340;-88
2022/03/19 06:06:21;;;;;;;16.60;8.63;;;9.90;61.70;;;;;;5050853;28;20240;-89
2022/03/19 06:08:50;;;;;;;21.73;10.67;;;9.90;61.90;;;;;;5053845;28;20731;-90
2022/03/19 06:11:18;;;;;;;19.57;10.80;;;9.90;62.30;;;;;;5067136;28;20221;-89
2022/03/19 06:13:45;;;;;;;20.27;9.63;;;9.90;62.20;;;;;;5057216;28;20282;-89
2022/03/19 06:16:12;;;;;;;21.07;10.17;;;9.80;62.10;;;;;;5053231;28;20228;-91
2022/03/19 06:18:45;;;;;;;20.03;9.37;;;9.80;62.10;;;;;;5052662;28;20208;-92
2022/03/19 06:21:12;;;;;;;24.60;11.37;;;9.80;62.40;;;;;;5049350;28;20235;-90
2022/03/19 06:23:40;;;;;;;19.77;10.13;;;9.70;63.00;;;;;;5059942;28;20705;-91
2022/03/19 06:26:07;;;;;;;18.13;8.93;;;9.80;62.70;;;;;;5058265;28;20204;-93
2022/03/19 06:28:34;;;;;;;20.30;9.73;;;9.80;62.60;;;;;;5049918;28;20207;-90
2022/03/19 06:31:01;;;;;;;20.47;10.43;;;9.80;62.70;;;;;;5056097;28;20555;-89
2022/03/19 06:33:28;;;;;;;25.87;12.07;;;9.80;62.40;;;;;;5051249;28;20207;-88
2022/03/19 06:38:41;;;;;;;17.63;8.97;;;9.80;63.20;;;;;;5071656;28;20261;-89
2022/03/19 06:41:08;;;;;;;18.27;9.77;;;9.70;63.60;;;;;;5062613;28;20206;-89
2022/03/19 06:43:36;;;;;;;24.43;11.30;;;9.80;63.00;;;;;;5072761;28;20247;-90
2022/03/19 06:46:03;;;;;;;33.27;12.67;;;9.80;63.30;;;;;;5078257;28;20192;-90
2022/03/19 06:48:30;;;;;;;24.73;11.53;;;9.80;63.40;;;;;;5066863;28;20734;-93
2022/03/19 06:50:59;;;;;;;19.73;8.77;;;9.70;63.30;;;;;;5056196;28;20223;-94
2022/03/19 06:53:27;;;;;;;20.60;10.33;;;9.80;63.70;;;;;;5063076;28;20222;-91
2022/03/19 06:55:54;;;;;;;25.30;11.27;;;9.70;63.80;;;;;;5049467;28;20295;-90
2022/03/19 06:58:21;;;;;;;26.40;12.40;;;9.70;63.60;;;;;;5060473;28;20211;-91
2022/03/19 07:00:49;;;;;;;21.73;11.30;;;9.80;64.20;;;;;;5064991;28;20207;-93
2022/03/19 07:03:16;;;;;;;22.07;10.00;;;9.80;64.10;;;;;;5054651;28;20200;-89
2022/03/19 07:05:44;;;;;;;17.73;9.53;;;9.80;64.40;;;;;;5069891;28;20616;-94
2022/03/19 07:08:13;;;;;;;20.73;10.50;;;9.80;64.30;;;;;;5069383;28;20279;-89
2022/03/19 07:10:40;;;;;;;21.93;11.20;;;9.80;64.30;;;;;;5067792;28;20285;-89
2022/03/19 07:13:07;;;;;;;21.20;10.70;;;9.80;64.20;;;;;;5066415;28;20943;-90
2022/03/19 07:15:34;;;;;;;21.47;10.67;;;9.90;64.40;;;;;;5068790;28;20196;-91
2022/03/19 07:18:03;;;;;;;25.03;10.00;;;9.90;64.10;;;;;;5068170;28;20204;-89
2022/03/19 07:20:32;;;;;;;17.00;8.80;;;9.90;64.50;;;;;;5067505;28;20420;-89
2022/03/19 07:23:04;;;;;;;15.80;9.43;;;10.00;63.40;;;;;;5067173;28;20188;-92
2022/03/19 07:25:33;;;;;;;20.43;10.80;;;10.00;63.10;;;;;;5067722;28;20289;-92
2022/03/19 07:28:03;;;;;;;13.63;8.87;;;10.10;63.50;;;;;;5067949;28;20732;-91
2022/03/19 07:30:31;;;;;;;23.43;11.07;;;10.10;63.40;;;;;;5068343;28;20208;-89
2022/03/19 07:32:58;;;;;;;18.67;9.67;;;10.10;63.10;;;;;;5068004;28;20313;-89
2022/03/19 07:35:25;;;;;;;15.77;9.23;;;10.20;62.80;;;;;;5054605;28;20751;-88
2022/03/19 07:37:53;;;;;;;15.63;9.23;;;10.30;62.70;;;;;;5060638;28;20283;-88
2022/03/19 07:43:04;;;;;;;21.23;10.03;;;10.40;63.00;;;;;;5072144;28;20200;-90
2022/03/19 07:45:32;;;;;;;18.73;9.63;;;10.40;63.00;;;;;;5068155;28;20275;-91
2022/03/19 07:48:00;;;;;;;16.40;8.77;;;10.50;63.00;;;;;;5068049;28;20213;-92
2022/03/19 07:50:27;;;;;;;17.17;9.23;;;10.60;63.10;;;;;;5065113;28;20201;-89
2022/03/19 07:52:54;;;;;;;19.27;8.43;;;10.60;62.50;;;;;;5066743;28;20330;-89
2022/03/19 07:55:21;;;;;;;19.03;9.60;;;10.70;62.40;;;;;;5066512;28;20201;-89
2022/03/19 07:57:48;;;;;;;18.43;9.13;;;10.70;62.20;;;;;;5064795;28;20203;-88
2022/03/19 08:00:17;;;;;;;21.93;10.03;;;10.80;62.40;;;;;;5063106;28;20212;-89
2022/03/19 08:02:46;;;;;;;20.20;8.90;;;10.80;62.00;;;;;;5068412;28;20211;-90
2022/03/19 08:05:14;;;;;;;18.50;9.67;;;10.90;61.90;;;;;;5066811;28;20239;-89
2022/03/19 08:07:41;;;;;;;17.20;8.13;;;11.00;61.70;;;;;;5068685;28;20280;-90
2022/03/19 08:10:10;;;;;;;15.97;8.37;;;11.00;61.70;;;;;;5068431;28;20727;-88
2022/03/19 08:12:39;;;;;;;19.50;9.13;;;11.10;61.60;;;;;;5067888;28;20229;-89
2022/03/19 08:15:09;;;;;;;17.03;8.77;;;11.20;61.40;;;;;;5068364;28;20213;-89
2022/03/19 08:17:38;;;;;;;14.57;8.63;;;11.30;61.40;;;;;;5064145;28;20676;-89
2022/03/19 08:20:07;;;;;;;19.57;8.50;;;11.30;61.10;;;;;;5068888;28;20289;-91
2022/03/19 08:22:34;;;;;;;20.27;9.43;;;11.40;61.00;;;;;;5067547;28;20198;-90
2022/03/19 08:25:01;;;;;;;18.00;8.13;;;11.50;60.80;;;;;;5067580;28;20591;-88
2022/03/19 08:27:29;;;;;;;17.13;8.47;;;11.60;60.80;;;;;;5068880;28;20194;-89
2022/03/19 08:29:56;;;;;;;20.47;9.67;;;11.60;60.70;;;;;;5068478;28;20210;-90
2022/03/19 08:32:23;;;;;;;22.87;10.10;;;11.70;60.50;;;;;;5065361;28;20221;-87
2022/03/19 08:34:52;;;;;;;23.73;10.60;;;11.90;60.40;;;;;;5066057;28;20213;-88
2022/03/19 08:37:19;;;;;;;21.47;10.40;;;11.90;59.90;;;;;;5068318;28;20282;-88
2022/03/19 08:42:30;;;;;;;16.90;8.23;;;12.10;60.00;;;;;;5064679;28;20355;-88
2022/03/19 08:44:57;;;;;;;17.43;8.60;;;12.20;60.00;;;;;;5066965;28;20218;-90
2022/03/19 08:47:25;;;;;;;16.37;8.23;;;12.30;59.80;;;;;;5070855;28;20631;-94
2022/03/19 08:49:59;;;;;;;16.93;8.13;;;12.50;59.80;;;;;;5078183;28;20187;-90
2022/03/19 08:52:27;;;;;;;19.13;8.57;;;12.60;59.60;;;;;;5075222;28;20248;-94
2022/03/19 08:54:54;;;;;;;14.70;7.13;;;12.70;60.10;;;;;;5072303;28;20200;-92
2022/03/19 08:57:21;;;;;;;14.23;7.53;;;12.90;59.50;;;;;;5070226;28;21184;-91
2022/03/19 08:59:48;;;;;;;13.63;7.40;;;13.10;58.70;;;;;;5067722;28;20204;-92
2022/03/19 09:02:14;;;;;;;15.67;7.43;;;13.30;58.80;;;;;;5067196;28;20204;-89
2022/03/19 09:04:41;;;;;;;16.33;7.77;;;13.50;58.60;;;;;;5067623;28;20215;-92
2022/03/19 09:07:12;;;;;;;18.77;9.13;;;13.70;58.20;;;;;;5067569;28;20203;-90
2022/03/19 09:09:40;;;;;;;18.57;9.37;;;13.90;57.80;;;;;;5065640;28;20300;-89
2022/03/19 09:12:08;;;;;;;15.83;7.73;;;14.20;57.80;;;;;;5067842;28;20327;-90
2022/03/19 09:14:35;;;;;;;15.13;7.37;;;14.40;56.60;;;;;;5070336;28;20299;-91
2022/03/19 09:17:02;;;;;;;12.23;6.17;;;14.60;56.70;;;;;;5069816;28;20331;-90
2022/03/19 09:19:31;;;;;;;10.47;6.07;;;14.80;56.80;;;;;;5073981;28;20306;-90
2022/03/19 09:21:59;;;;;;;13.23;6.60;;;15.00;56.00;;;;;;5073541;28;20197;-91
2022/03/19 09:24:30;;;;;;;13.93;6.83;;;15.20;55.60;;;;;;5074061;28;20238;-90
2022/03/19 09:26:57;;;;;;;13.20;6.43;;;15.40;54.60;;;;;;5069354;28;20207;-90
2022/03/19 09:29:24;;;;;;;12.93;6.40;;;15.60;54.90;;;;;;5070150;28;20941;-91
2022/03/19 09:31:52;;;;;;;22.73;9.00;;;15.80;54.60;;;;;;5067908;28;20688;-91
2022/03/19 09:34:20;;;;;;;12.53;6.10;;;16.10;53.60;;;;;;5068134;28;20257;-92
2022/03/19 09:36:47;;;;;;;16.90;7.20;;;16.20;53.40;;;;;;5071579;28;20204;-90
2022/03/19 09:39:15;;;;;;;15.80;6.70;;;16.50;54.20;;;;;;5073854;28;20227;-90
2022/03/19 09:41:45;;;;;;;11.37;6.07;;;16.60;52.60;;;;;;5072084;28;20199;-88
2022/03/19 09:44:13;;;;;;;9.67;4.97;;;16.80;52.50;;;;;;5071297;28;20301;-90
2022/03/19 09:46:41;;;;;;;12.83;5.60;;;16.90;51.30;;;;;;5071671;28;20298;-91
2022/03/19 09:49:10;;;;;;;10.57;6.33;;;17.10;50.30;;;;;;5069643;28;20207;-88
2022/03/19 09:51:40;;;;;;;11.50;5.63;;;17.30;50.50;;;;;;5070000;28;20743;-89
2022/03/19 09:54:08;;;;;;;13.07;6.13;;;17.40;49.10;;;;;;5071523;28;20857;-91
2022/03/19 09:56:37;;;;;;;12.57;6.40;;;17.50;49.70;;;;;;5071297;28;20316;-90
2022/03/19 09:59:08;;;;;;;14.30;6.07;;;17.60;49.60;;;;;;5071002;28;20229;-89
2022/03/19 10:01:41;;;;;;;19.80;7.43;;;17.80;49.30;;;;;;5068364;28;20286;-89
2022/03/19 10:04:08;;;;;;;9.93;5.13;;;17.90;48.60;;;;;;5068602;28;20238;-90
2022/03/19 10:09:32;;;;;;;11.57;5.67;;;18.10;48.40;;;;;;5066794;28;20215;-90
2022/03/19 10:12:01;;;;;;;13.03;5.87;;;18.20;47.50;;;;;;5069407;28;20330;-90
2022/03/19 10:14:32;;;;;;;10.43;5.13;;;18.20;47.50;;;;;;5069469;28;20196;-90
2022/03/19 10:16:59;;;;;;;12.83;5.77;;;18.40;47.30;;;;;;5069638;28;20304;-91
2022/03/19 10:19:29;;;;;;;12.57;6.27;;;18.50;46.70;;;;;;5069390;28;20195;-91
2022/03/19 10:22:07;;;;;;;10.33;4.97;;;18.50;46.40;;;;;;5068951;28;20711;-90
2022/03/19 10:24:38;;;;;;;13.50;5.77;;;18.60;45.50;;;;;;5069572;28;20203;-90
2022/03/19 10:27:05;;;;;;;9.93;4.83;;;18.70;45.40;;;;;;5054077;28;20200;-90
2022/03/19 10:29:35;;;;;;;14.33;5.73;;;18.90;46.80;;;;;;5048986;28;20667;-90
2022/03/19 10:32:07;;;;;;;12.07;4.87;;;19.00;46.80;;;;;;5062770;28;20219;-89
2022/03/19 10:34:40;;;;;;;11.00;5.23;;;19.10;45.50;;;;;;5082692;28;20195;-91
2022/03/19 10:37:10;;;;;;;10.83;4.47;;;19.20;45.90;;;;;;5075813;28;20201;-90
2022/03/19 10:39:45;;;;;;;9.67;4.77;;;19.30;45.30;;;;;;5065392;28;20202;-92
2022/03/19 10:42:15;;;;;;;12.80;4.90;;;19.40;44.40;;;;;;5069074;28;20912;-89
2022/03/19 10:44:48;;;;;;;13.50;6.13;;;19.50;42.50;;;;;;5069427;28;20816;-90
2022/03/19 10:47:22;;;;;;;8.20;4.70;;;19.60;43.30;;;;;;5069462;28;20199;-92
2022/03/19 10:49:49;;;;;;;11.77;5.73;;;19.70;43.00;;;;;;5068682;28;20290;-90
2022/03/19 10:52:17;;;;;;;9.53;5.10;;;19.70;42.70;;;;;;5069679;28;20661;-93
2022/03/19 10:54:45;;;;;;;11.80;5.73;;;19.80;43.50;;;;;;5068468;28;20885;-90
2022/03/19 10:57:12;;;;;;;12.60;4.73;;;19.80;43.50;;;;;;5058428;28;20583;-91
2022/03/19 10:59:39;;;;;;;7.40;4.27;;;19.90;43.20;;;;;;5068936;28;20261;-92
2022/03/19 11:02:12;;;;;;;9.03;3.80;;;20.00;41.80;;;;;;5070678;28;20206;-92
2022/03/19 11:04:41;;;;;;;11.00;4.87;;;20.10;42.00;;;;;;5068655;28;21092;-91
2022/03/19 11:07:10;;;;;;;8.03;4.10;;;20.20;41.80;;;;;;5071799;28;20249;-93
2022/03/19 11:09:39;;;;;;;10.83;5.07;;;20.30;41.00;;;;;;5071394;28;20298;-92
2022/03/19 11:12:09;;;;;;;15.70;5.30;;;20.30;39.90;;;;;;5071278;28;20272;-91
2022/03/19 11:14:40;;;;;;;10.83;5.57;;;20.40;40.50;;;;;;5070458;28;20663;-91
2022/03/19 11:20:04;;;;;;;11.50;5.27;;;20.40;39.60;;;;;;5054958;28;20205;-90
2022/03/19 11:22:39;;;;;;;12.93;5.43;;;20.40;40.30;;;;;;5070858;28;20285;-90
2022/03/19 11:25:17;;;;;;;11.53;4.80;;;20.50;40.10;;;;;;5069262;28;20205;-90
2022/03/19 11:27:48;;;;;;;9.87;4.93;;;20.50;39.40;;;;;;5069412;28;20321;-91
2022/03/19 11:30:17;;;;;;;9.83;5.27;;;20.60;39.70;;;;;;5076626;28;20229;-94
2022/03/19 11:33:04;;;;;;;11.57;5.77;;;20.70;39.70;;;;;;5083945;28;20223;-91
2022/03/19 11:35:32;;;;;;;12.33;5.03;;;20.70;39.50;;;;;;5068781;28;20207;-93
2022/03/19 11:38:01;;;;;;;9.83;4.63;;;20.80;40.60;;;;;;5070912;28;20284;-90
2022/03/19 11:40:30;;;;;;;10.40;5.17;;;20.90;39.60;;;;;;5064007;28;20206;-92
2022/03/19 11:42:57;;;;;;;10.07;5.00;;;21.00;40.30;;;;;;5069591;28;20297;-91
2022/03/19 11:45:26;;;;;;;8.63;4.83;;;21.00;39.30;;;;;;5069177;28;20301;-90
2022/03/19 11:47:53;;;;;;;10.00;5.30;;;21.10;38.70;;;;;;5070021;28;20249;-88
2022/03/19 11:50:24;;;;;;;9.73;5.37;;;21.20;38.80;;;;;;5069607;28;20211;-88
2022/03/19 11:53:07;;;;;;;11.60;5.17;;;21.20;38.90;;;;;;5071925;28;20266;-87
2022/03/19 11:55:40;;;;;;;8.37;4.60;;;21.30;37.60;;;;;;5071444;28;20299;-92
2022/03/19 11:58:15;;;;;;;10.17;5.50;;;21.30;37.40;;;;;;5073282;28;20207;-88
2022/03/19 12:00:44;;;;;;;8.67;4.37;;;21.30;37.90;;;;;;5080815;28;20195;-96
2022/03/19 12:03:24;;;;;;;10.63;5.00;;;21.30;38.90;;;;;;5086380;28;20207;-95
2022/03/19 12:05:54;;;;;;;8.00;4.77;;;21.40;37.50;;;;;;5082640;28;20291;-88
2022/03/19 12:08:22;;;;;;;12.73;5.53;;;21.40;38.20;;;;;;5075648;28;20295;-89
2022/03/19 12:10:57;;;;;;;10.63;5.50;;;21.50;38.00;;;;;;5074682;28;20237;-94
2022/03/19 12:13:39;;;;;;;13.07;5.90;;;21.50;37.00;;;;;;5075069;28;20265;-89
2022/03/19 12:16:08;;;;;;;7.43;4.33;;;21.60;37.80;;;;;;5074874;28;20256;-90
2022/03/19 12:18:46;;;;;;;10.37;4.83;;;21.60;38.20;;;;;;5072754;28;20208;-86
2022/03/19 12:21:24;;;;;;;13.03;5.10;;;21.70;37.00;;;;;;5073097;28;20199;-88
2022/03/19 12:24:27;;;;;;;7.93;4.40;;;21.80;37.10;;;;;;5072603;28;20667;-88
2022/03/19 12:26:56;;;;;;;11.60;4.87;;;22.00;36.80;;;;;;5074372;28;20253;-89
2022/03/19 12:29:25;;;;;;;9.00;4.30;;;22.10;37.80;;;;;;5089980;28;20210;-90
2022/03/19 12:31:54;;;;;;;11.17;5.77;;;22.20;37.80;;;;;;5076620;28;20202;-89
2022/03/19 12:34:24;;;;;;;9.47;4.70;;;22.30;36.90;;;;;;5074210;28;20271;-91
2022/03/19 12:37:00;;;;;;;9.37;4.30;;;22.40;36.70;;;;;;5078552;28;20192;-88
2022/03/19 12:39:27;;;;;;;8.77;4.90;;;22.50;35.10;;;;;;5074783;28;20857;-90
2022/03/19 12:41:55;;;;;;;10.50;4.77;;;22.60;36.20;;;;;;5077324;28;20647;-88
2022/03/19 12:44:25;;;;;;;9.10;4.30;;;22.70;34.70;;;;;;5077836;28;20286;-96
2022/03/19 12:47:04;;;;;;;7.07;3.50;;;22.80;36.10;;;;;;5078227;28;20291;-92
2022/03/19 12:49:32;;;;;;;9.60;4.67;;;22.90;35.60;;;;;;5078159;28;20713;-88
2022/03/19 12:52:10;;;;;;;7.07;4.00;;;22.90;34.40;;;;;;5076665;28;20196;-90
2022/03/19 12:54:43;;;;;;;13.40;4.67;;;23.10;33.70;;;;;;5077166;28;20219;-89
2022/03/19 12:57:12;;;;;;;9.00;5.07;;;23.10;33.90;;;;;;5075055;28;20196;-91
2022/03/19 12:59:48;;;;;;;9.30;4.73;;;23.20;34.90;;;;;;5072300;28;20249;-89
2022/03/19 13:02:16;;;;;;;7.70;4.40;;;23.30;34.00;;;;;;5074669;28;20195;-94
2022/03/19 13:04:45;;;;;;;8.10;4.57;;;23.30;33.00;;;;;;5072532;28;20199;-90
2022/03/19 13:07:17;;;;;;;8.00;3.87;;;23.30;32.80;;;;;;5073981;28;20294;-90
2022/03/19 13:09:45;;;;;;;10.87;4.77;;;23.40;32.60;;;;;;5072867;28;20214;-89